Archbold, OH

12:18 AM EDT on August 31, 2014 (GMT -0400)
Toledo Express | Change Station
CLOSE
Current Station
Airport
Location: Toledo,
Elevation: 692 ft
Nearby Weather Stations

Elev 692 ft 41.59 °N, 83.81 °W | Updated 26 minutes ago

Partly Cloudy
Partly Cloudy
76 °F
Feels Like 76 °F
N
10
Wind Variable Wind from SSW
Gusts 23 mph

Today
High -- | Low -- °F
--% Chance of Precip.
Yesterday
High -- | Low -- °F
Precip. -- in
7:02 AM 8:11 PM
Waxing Crescent, 27% visible
Pressure 29.94 in
Visibility 10.0 miles
Clouds Few 4500 ft
Dew Point 68 °F
Humidity 76%
Rainfall 0.00 in
Snow Depth Not available.
UV 0 out of 12
Pollen 9.50 out of 12
Air Quality Not available.
Flu Activity Not available.
METAR KTOL 310352Z 21009G20KT 10SM FEW045 24/20 A2996 RMK AO2 SLP139 T02440200

More Conditions Fewer Conditions

Pressure 29.94 in
Visibility 10.0 miles
Clouds Few 4500 ft
Dew Point 68 °F
Humidity 76%
Rainfall 0.00 in
Snow Depth Not available.
UV 0 out of 12
Pollen 9.50 out of 12
Air Quality Not available.
Flu Activity Not available.
METAR KTOL 310352Z 21009G20KT 10SM FEW045 24/20 A2996 RMK AO2 SLP139 T02440200

More Conditions Fewer Conditions

10-Day Weather Forecast

Almanac

Astronomy

Aug. 31, 2014 Rise Set
Actual Time 7:02 AM EDT 8:11 PM EDT
Civil Twilight 6:33 AM EDT 8:40 PM EDT
Nautical Twilight 5:59 AM EDT 9:14 PM EDT
Astronomical Twilight 5:23 AM EDT 9:50 PM EDT
Moon 12:52 PM EDT 11:21 PM EDT
Length of Visible Light 14h 06m
Length of Day
13h 09m
Tomorrow will be 2m 39s shorter.
Waxing Crescent, 27% of the Moon is Illuminated
Today
Waxing Crescent
Sep 2
First Quarter
Sep 8
Full
Sep 15
Last Quarter
Sep 24
New

Yesterday's Extremes

State Highs State Lows

Community

WunderPhotos

Upload Photos

1,748,779 photos uploaded!

Nearby

Snow Depth

Station Depth Elevation
No new snow has been reported.

Earthquake Activity

City Distance Mag. Time & Date
No recent earthquake activity has been reported nearby.
Minimum magnitude displayed is 2.5.

Coastal Water Temperatures

Place Temperature
No Stations Reporting

Nearby Weather Stations